Tiger — WDE3479 — position and weather

sailwx.info

Track history (hours):
 
Tides and Currents Weather Stations Pressure Air Temp Water Temp Dewpoint Dewpoint Depression Visibility Wind Speed Wind Dir Waves Ship Positions

Tiger

More information available from US FCC via Universal Licensing System and Coast Guard Vessel Documentation Center.

Last reported at 2014-Jul-26 19:15 UTC. Time now 2014-Aug-29 05:37 UTC.
Position N 29°22' W 091°23'.
Warning: this ship's position is 33 days out of date.

Length 35 m; draft 3 m.

Type: . MMSI: 367339650.

Date/timePositionNaut miles runAvg speedWind from/ knotsBaromVisibWave heightAir tempDewpointWater temp
2014-Jul-26 19:15N 29°22' W 091°23'1014.2
2014-Jul-26 18:33N 29°30' W 091°16'9 9.3
2014-Jul-26 17:33N 29°37' W 091°08'3 3.3
2014-Jul-26 16:33N 29°40' W 091°08'0 0.0
2014-Jul-26 15:33N 29°40' W 091°08'0 0.0
2014-Jul-26 14:33N 29°40' W 091°08'0 0.0
2014-Jul-26 13:33N 29°40' W 091°08'0 0.0
2014-Jul-26 12:33N 29°40' W 091°08'0 0.0
2014-Jul-26 11:33N 29°40' W 091°08'0 0.0
2014-Jul-26 10:33N 29°40' W 091°08'0 0.0
2014-Jul-26 09:33N 29°40' W 091°08'0 0.0
2014-Jul-26 08:33N 29°40' W 091°08'0 0.0
2014-Jul-26 07:33N 29°40' W 091°08'0 0.0
2014-Jul-26 06:30N 29°40' W 091°08'0 0.0
2014-Jul-26 05:33N 29°40' W 091°08'0 0.0
2014-Jul-26 04:33N 29°40' W 091°08'0 0.0
2014-Jul-26 03:33N 29°40' W 091°08'0 0.0
2014-Jul-26 02:33N 29°40' W 091°08'0 0.0
2014-Jul-26 01:33N 29°40' W 091°08'0 0.0
2014-Jul-26 00:33N 29°40' W 091°08'0 0.0
2014-Jul-25 23:33N 29°40' W 091°08'0 0.0
2014-Jul-25 22:33N 29°40' W 091°08'0 0.0
2014-Jul-25 21:33N 29°40' W 091°08'0 0.0
2014-Jul-25 20:33N 29°40' W 091°08'0 0.1
2014-Jul-25 19:33N 29°40' W 091°08'0 0.1
2014-Jul-25 18:33N 29°40' W 091°08'0 0.2
2014-Jul-25 17:31N 29°40' W 091°08'0 0.0
2014-Jul-25 16:31N 29°40' W 091°08'0 0.0
2014-Jul-25 15:31N 29°40' W 091°08'0 0.0
2014-Jul-25 14:31N 29°40' W 091°08'0 0.0
2014-Jul-25 13:33N 29°40' W 091°08'0 0.0
2014-Jul-25 12:33N 29°40' W 091°08'0 0.0
2014-Jul-25 11:33N 29°40' W 091°08'0 0.0
2014-Jul-25 10:33N 29°40' W 091°08'0 0.0
2014-Jul-25 09:33N 29°40' W 091°08'0 0.0
2014-Jul-25 08:33N 29°40' W 091°08'0 0.0
2014-Jul-25 07:33N 29°40' W 091°08'0 0.0
2014-Jul-25 06:33N 29°40' W 091°08'0 0.0
2014-Jul-25 05:33N 29°40' W 091°08'0 0.0
2014-Jul-25 04:33N 29°40' W 091°08'0 0.0
2014-Jul-25 03:33N 29°40' W 091°08'0 0.0
2014-Jul-25 02:33N 29°40' W 091°08'1 0.6
2014-Jul-25 01:33N 29°39' W 091°08'1 0.6
2014-Jul-25 00:33N 29°40' W 091°08'0 0.1
2014-Jul-24 23:33N 29°40' W 091°08'0 0.0
2014-Jul-24 22:33N 29°40' W 091°08'0 0.0
2014-Jul-24 21:33N 29°40' W 091°08'0 0.0
2014-Jul-24 20:33N 29°40' W 091°08'0 0.0
2014-Jul-24 19:33N 29°40' W 091°08'0 0.0
2014-Jul-24 18:31N 29°40' W 091°08'0 0.0
2014-Jul-24 17:31N 29°40' W 091°08'0 0.0
2014-Jul-24 16:31N 29°40' W 091°08'0 0.0
2014-Jul-24 15:31N 29°40' W 091°08'0 0.0
2014-Jul-24 14:31N 29°40' W 091°08'0 0.0
2014-Jul-24 13:31N 29°40' W 091°08'0 0.0
2014-Jul-24 12:31N 29°40' W 091°08'0 0.0
2014-Jul-24 11:31N 29°40' W 091°08'0 0.0
2014-Jul-24 10:31N 29°40' W 091°08'0 0.0
2014-Jul-24 09:31N 29°40' W 091°08'0 0.0
2014-Jul-24 08:31N 29°40' W 091°08'0 0.0
2014-Jul-24 07:31N 29°40' W 091°08'0 0.0
2014-Jul-24 06:31N 29°40' W 091°08'0 0.0
2014-Jul-24 05:28N 29°40' W 091°08'0 0.0
2014-Jul-24 04:31N 29°40' W 091°08'0 0.0
2014-Jul-24 03:31N 29°40' W 091°08'0 0.0
2014-Jul-24 02:28N 29°40' W 091°08'0 0.0
2014-Jul-24 01:31N 29°40' W 091°08'0 0.0
2014-Jul-24 00:31N 29°40' W 091°08'0 0.0
2014-Jul-23 23:31N 29°40' W 091°08'0 0.0
2014-Jul-23 22:31N 29°40' W 091°08'0 0.0
2014-Jul-23 21:31N 29°40' W 091°08'0 0.0
2014-Jul-23 20:22N 29°40' W 091°08'0 0.0
2014-Jul-23 19:31N 29°40' W 091°08'0 0.0
2014-Jul-23 18:31N 29°40' W 091°08'0 0.0
2014-Jul-23 17:31N 29°40' W 091°08'0 0.0
2014-Jul-23 16:31N 29°40' W 091°08'  
Track history (hours):
 
Tides and Currents Weather Stations Pressure Air Temp Water Temp Dewpoint Dewpoint Depression Visibility Wind Speed Wind Dir Waves Ship Positions

Tiger

More information available from US FCC via Universal Licensing System and Coast Guard Vessel Documentation Center.

Last reported at 2014-Jul-26 19:15 UTC. Time now 2014-Aug-29 05:37 UTC.
Position N 29°22' W 091°23'.
Warning: this ship's position is 33 days out of date.

Length 35 m; draft 3 m.

Type: . MMSI: 367339650.

Date/timePositionNaut miles runAvg speedWind from/ knotsBaromVisibWave heightAir tempDewpointWater temp
2014-Jul-26 19:15N 29°22' W 091°23'1014.2
2014-Jul-26 18:33N 29°30' W 091°16'9 9.3
2014-Jul-26 17:33N 29°37' W 091°08'3 3.3
2014-Jul-26 16:33N 29°40' W 091°08'0 0.0
2014-Jul-26 15:33N 29°40' W 091°08'0 0.0
2014-Jul-26 14:33N 29°40' W 091°08'0 0.0
2014-Jul-26 13:33N 29°40' W 091°08'0 0.0
2014-Jul-26 12:33N 29°40' W 091°08'0 0.0
2014-Jul-26 11:33N 29°40' W 091°08'0 0.0
2014-Jul-26 10:33N 29°40' W 091°08'0 0.0
2014-Jul-26 09:33N 29°40' W 091°08'0 0.0
2014-Jul-26 08:33N 29°40' W 091°08'0 0.0
2014-Jul-26 07:33N 29°40' W 091°08'0 0.0
2014-Jul-26 06:30N 29°40' W 091°08'0 0.0
2014-Jul-26 05:33N 29°40' W 091°08'0 0.0
2014-Jul-26 04:33N 29°40' W 091°08'0 0.0
2014-Jul-26 03:33N 29°40' W 091°08'0 0.0
2014-Jul-26 02:33N 29°40' W 091°08'0 0.0
2014-Jul-26 01:33N 29°40' W 091°08'0 0.0
2014-Jul-26 00:33N 29°40' W 091°08'0 0.0
2014-Jul-25 23:33N 29°40' W 091°08'0 0.0
2014-Jul-25 22:33N 29°40' W 091°08'0 0.0
2014-Jul-25 21:33N 29°40' W 091°08'0 0.0
2014-Jul-25 20:33N 29°40' W 091°08'0 0.1
2014-Jul-25 19:33N 29°40' W 091°08'0 0.1
2014-Jul-25 18:33N 29°40' W 091°08'0 0.2
2014-Jul-25 17:31N 29°40' W 091°08'0 0.0
2014-Jul-25 16:31N 29°40' W 091°08'0 0.0
2014-Jul-25 15:31N 29°40' W 091°08'0 0.0
2014-Jul-25 14:31N 29°40' W 091°08'0 0.0
2014-Jul-25 13:33N 29°40' W 091°08'0 0.0
2014-Jul-25 12:33N 29°40' W 091°08'0 0.0
2014-Jul-25 11:33N 29°40' W 091°08'0 0.0
2014-Jul-25 10:33N 29°40' W 091°08'0 0.0
2014-Jul-25 09:33N 29°40' W 091°08'0 0.0
2014-Jul-25 08:33N 29°40' W 091°08'0 0.0
2014-Jul-25 07:33N 29°40' W 091°08'0 0.0
2014-Jul-25 06:33N 29°40' W 091°08'0 0.0
2014-Jul-25 05:33N 29°40' W 091°08'0 0.0
2014-Jul-25 04:33N 29°40' W 091°08'0 0.0
2014-Jul-25 03:33N 29°40' W 091°08'0 0.0
2014-Jul-25 02:33N 29°40' W 091°08'1 0.6
2014-Jul-25 01:33N 29°39' W 091°08'1 0.6
2014-Jul-25 00:33N 29°40' W 091°08'0 0.1
2014-Jul-24 23:33N 29°40' W 091°08'0 0.0
2014-Jul-24 22:33N 29°40' W 091°08'0 0.0
2014-Jul-24 21:33N 29°40' W 091°08'0 0.0
2014-Jul-24 20:33N 29°40' W 091°08'0 0.0
2014-Jul-24 19:33N 29°40' W 091°08'0 0.0
2014-Jul-24 18:31N 29°40' W 091°08'0 0.0
2014-Jul-24 17:31N 29°40' W 091°08'0 0.0
2014-Jul-24 16:31N 29°40' W 091°08'0 0.0
2014-Jul-24 15:31N 29°40' W 091°08'0 0.0
2014-Jul-24 14:31N 29°40' W 091°08'0 0.0
2014-Jul-24 13:31N 29°40' W 091°08'0 0.0
2014-Jul-24 12:31N 29°40' W 091°08'0 0.0
2014-Jul-24 11:31N 29°40' W 091°08'0 0.0
2014-Jul-24 10:31N 29°40' W 091°08'0 0.0
2014-Jul-24 09:31N 29°40' W 091°08'0 0.0
2014-Jul-24 08:31N 29°40' W 091°08'0 0.0
2014-Jul-24 07:31N 29°40' W 091°08'0 0.0
2014-Jul-24 06:31N 29°40' W 091°08'0 0.0
2014-Jul-24 05:28N 29°40' W 091°08'0 0.0
2014-Jul-24 04:31N 29°40' W 091°08'0 0.0
2014-Jul-24 03:31N 29°40' W 091°08'0 0.0
2014-Jul-24 02:28N 29°40' W 091°08'0 0.0
2014-Jul-24 01:31N 29°40' W 091°08'0 0.0
2014-Jul-24 00:31N 29°40' W 091°08'0 0.0
2014-Jul-23 23:31N 29°40' W 091°08'0 0.0
2014-Jul-23 22:31N 29°40' W 091°08'0 0.0
2014-Jul-23 21:31N 29°40' W 091°08'0 0.0
2014-Jul-23 20:22N 29°40' W 091°08'0 0.0
2014-Jul-23 19:31N 29°40' W 091°08'0 0.0
2014-Jul-23 18:31N 29°40' W 091°08'0 0.0
2014-Jul-23 17:31N 29°40' W 091°08'0 0.0
2014-Jul-23 16:31N 29°40' W 091°08'  

Dump ship's entire track history